createdAt,value
2018-05-26T00:01:16.570Z,92.10
2018-05-26T00:03:44.156Z,92.50
2018-05-26T00:06:11.895Z,92.80
2018-05-26T00:08:39.763Z,93.10
2018-05-26T00:11:07.628Z,93.30
2018-05-26T00:13:35.402Z,93.40
2018-05-26T00:16:03.260Z,93.30
2018-05-26T00:18:31.127Z,93.20
2018-05-26T00:20:58.993Z,93.10
2018-05-26T00:23:26.865Z,92.90
2018-05-26T00:25:54.727Z,92.80
2018-05-26T00:28:22.939Z,92.70
2018-05-26T00:30:51.691Z,93.10
2018-05-26T00:33:19.560Z,93.00
2018-05-26T00:35:47.325Z,93.00
2018-05-26T00:38:15.085Z,93.10
2018-05-26T00:40:42.955Z,93.10
2018-05-26T00:43:10.818Z,93.00
2018-05-26T00:45:38.789Z,92.80
2018-05-26T00:48:06.581Z,92.80
2018-05-26T00:50:34.320Z,92.80
2018-05-26T00:53:03.142Z,92.70
2018-05-26T00:55:31.792Z,92.40
2018-05-26T00:57:59.658Z,92.40
2018-05-26T01:00:27.527Z,92.30
2018-05-26T01:02:56.416Z,92.40
2018-05-26T01:05:24.287Z,92.60
2018-05-26T01:07:52.048Z,92.70
2018-05-26T01:10:19.915Z,92.60
2018-05-26T01:12:47.781Z,92.50
2018-05-26T01:15:15.588Z,92.40
2018-05-26T01:17:44.234Z,92.40
2018-05-26T01:20:12.201Z,92.40
2018-05-26T01:22:40.068Z,92.40
2018-05-26T01:25:07.936Z,92.40
2018-05-26T01:27:36.460Z,92.40
2018-05-26T01:30:05.036Z,92.50
2018-05-26T01:32:32.868Z,92.50
2018-05-26T01:35:00.735Z,92.50
2018-05-26T01:37:28.600Z,92.40
2018-05-26T01:39:56.365Z,92.30
2018-05-26T01:42:24.232Z,94.00
2018-05-26T01:44:52.099Z,94.10
2018-05-26T01:47:19.821Z,94.50
2018-05-26T01:49:47.730Z,94.00
2018-05-26T01:52:15.527Z,93.90
2018-05-26T01:54:43.361Z,93.80
2018-05-26T01:57:11.230Z,93.80
2018-05-26T01:59:39.094Z,93.70
2018-05-26T02:02:06.962Z,93.50
2018-05-26T02:04:34.764Z,93.20
2018-05-26T02:07:03.310Z,92.90
2018-05-26T02:09:31.176Z,92.90
2018-05-26T02:11:59.043Z,92.90
2018-05-26T02:14:26.845Z,93.00
2018-05-26T02:16:55.494Z,92.60
2018-05-26T02:19:23.258Z,92.60
2018-05-26T02:21:51.125Z,92.40
2018-05-26T02:24:19.096Z,92.30
2018-05-26T02:26:46.965Z,92.20
2018-05-26T02:29:14.829Z,92.30
2018-05-26T02:31:42.696Z,92.30
2018-05-26T02:34:10.562Z,92.40
2018-05-26T02:36:38.429Z,92.60
2018-05-26T02:39:06.224Z,92.60
2018-05-26T02:41:34.065Z,92.60
2018-05-26T02:44:01.800Z,92.70
2018-05-26T02:46:29.595Z,92.70
2018-05-26T02:48:57.456Z,92.70
2018-05-26T02:51:26.168Z,92.70
2018-05-26T02:53:54.009Z,92.70
2018-05-26T02:56:22.388Z,93.00
2018-05-26T02:58:50.192Z,92.70
2018-05-26T03:01:18.022Z,92.70
2018-05-26T03:03:46.296Z,93.00
2018-05-26T03:06:19.795Z,92.90
2018-05-26T03:08:53.500Z,93.00
2018-05-26T03:11:27.222Z,93.00
2018-05-26T03:14:00.701Z,93.00
2018-05-26T03:16:34.332Z,93.30
2018-05-26T03:19:02.272Z,93.10
2018-05-26T03:21:30.030Z,93.00
2018-05-26T03:23:57.951Z,92.90
2018-05-26T03:26:26.589Z,92.90
2018-05-26T03:28:54.488Z,92.90
2018-05-26T03:31:22.353Z,93.10
2018-05-26T03:33:50.227Z,93.30
2018-05-26T03:36:18.929Z,93.70
2018-05-26T03:38:47.561Z,93.80
2018-05-26T03:41:15.327Z,93.80
2018-05-26T03:43:43.192Z,93.80
2018-05-26T03:46:10.849Z,93.80
2018-05-26T03:48:38.641Z,93.90
2018-05-26T03:51:06.487Z,93.90
2018-05-26T03:53:34.354Z,93.90
2018-05-26T04:09:30.400Z,93.70
2018-05-26T04:11:58.266Z,93.80
2018-05-26T04:14:26.103Z,93.80
2018-05-26T04:16:53.968Z,94.00
2018-05-26T04:19:21.732Z,94.20
2018-05-26T04:21:49.826Z,94.30
2018-05-26T04:24:17.568Z,94.50
2018-05-26T04:26:45.435Z,94.70
2018-05-26T04:29:13.303Z,94.70
2018-05-26T04:31:41.107Z,94.80
2018-05-26T04:34:09.425Z,95.00
2018-05-26T04:36:36.959Z,94.90
2018-05-26T04:51:59.266Z,94.70
2018-05-26T04:54:26.785Z,94.60
2018-05-26T04:56:54.307Z,94.80
2018-05-26T04:59:22.596Z,95.30
2018-05-26T05:01:50.894Z,95.60
2018-05-26T05:04:18.420Z,95.60
2018-05-26T05:06:46.701Z,95.70
2018-05-26T05:09:14.985Z,95.90
2018-05-26T05:11:43.266Z,96.00
2018-05-26T05:14:10.785Z,96.00
2018-05-26T05:16:39.805Z,96.20
2018-05-26T05:19:08.093Z,96.00
2018-05-26T05:21:36.381Z,95.80
2018-05-26T05:24:03.893Z,95.80
2018-05-26T05:26:31.422Z,96.00
2018-05-26T05:28:58.941Z,96.20
2018-05-26T05:31:27.225Z,96.10
2018-05-26T05:33:55.513Z,96.10
2018-05-26T05:36:23.032Z,96.00
2018-05-26T05:38:51.333Z,96.30
2018-05-26T05:41:19.626Z,95.90
2018-05-26T05:43:47.154Z,95.90
2018-05-26T05:46:15.545Z,95.70
2018-05-26T05:48:43.829Z,96.00
2018-05-26T05:51:11.389Z,96.00
2018-05-26T05:53:38.906Z,95.60
2018-05-26T05:56:06.426Z,95.50
2018-05-26T05:58:33.949Z,95.20
2018-05-26T06:01:02.234Z,95.00
2018-05-26T06:03:30.518Z,94.80
2018-05-26T06:05:58.901Z,94.60
2018-05-26T06:08:26.448Z,94.60
2018-05-26T06:10:54.728Z,94.60
2018-05-26T06:13:23.022Z,94.20
2018-05-26T06:15:50.564Z,94.20
2018-05-26T06:18:18.101Z,94.20
2018-05-26T06:20:45.614Z,94.30
2018-05-26T06:23:13.137Z,94.40
2018-05-26T06:25:41.421Z,94.50
2018-05-26T06:28:08.954Z,94.50
2018-05-26T06:30:37.247Z,94.10
2018-05-26T06:33:05.533Z,94.20
2018-05-26T06:35:33.814Z,94.60
2018-05-26T06:38:01.337Z,94.20
2018-05-26T06:40:28.866Z,94.10
2018-05-26T06:42:56.385Z,94.40
2018-05-26T06:45:24.687Z,93.50
2018-05-26T06:47:52.202Z,93.50
2018-05-26T06:50:20.490Z,93.90
2018-05-26T06:52:48.026Z,93.80
2018-05-26T06:55:17.058Z,94.00
2018-05-26T06:57:44.577Z,94.00
2018-05-26T07:00:12.135Z,93.60
2018-05-26T07:02:39.630Z,93.10
2018-05-26T07:05:07.923Z,92.70
2018-05-26T07:07:35.441Z,92.60
2018-05-26T07:10:02.957Z,92.30
2018-05-26T07:12:30.477Z,92.20
2018-05-26T07:14:58.762Z,92.00
2018-05-26T07:17:27.042Z,92.60
2018-05-26T07:19:54.564Z,92.70
2018-05-26T07:22:23.594Z,91.20
2018-05-26T07:24:51.114Z,91.20
2018-05-26T07:27:20.142Z,91.50
2018-05-26T07:29:48.425Z,90.90
2018-05-26T07:32:15.937Z,90.90
2018-05-26T07:34:43.456Z,90.40
2018-05-26T07:37:10.980Z,90.60
2018-05-26T07:39:39.269Z,91.50
2018-05-26T07:42:07.551Z,91.60
2018-05-26T07:44:35.073Z,91.60
2018-05-26T07:47:04.100Z,91.80
2018-05-26T07:49:32.378Z,92.10
2018-05-26T07:51:59.907Z,92.10
2018-05-26T07:54:28.186Z,92.50
2018-05-26T07:56:56.469Z,92.70
2018-05-26T07:59:23.981Z,92.70
2018-05-26T08:01:51.489Z,92.60
2018-05-26T08:04:19.781Z,92.50
2018-05-26T08:06:48.081Z,92.50
2018-05-26T08:09:15.615Z,92.50
2018-05-26T08:11:43.147Z,93.10
2018-05-26T08:14:10.656Z,93.50
2018-05-26T08:16:38.180Z,93.50
2018-05-26T08:19:06.467Z,92.50
2018-05-26T08:21:34.761Z,92.80
2018-05-26T08:24:02.272Z,92.80
2018-05-26T08:26:31.298Z,93.40
2018-05-26T08:28:59.593Z,94.40
2018-05-26T08:31:27.106Z,94.40
2018-05-26T08:33:54.757Z,94.80
2018-05-26T08:36:22.254Z,94.50
2018-05-26T08:38:50.537Z,93.80
2018-05-26T08:41:18.054Z,93.90
2018-05-26T08:43:45.588Z,94.00
2018-05-26T08:46:13.120Z,93.30
2018-05-26T08:48:40.641Z,93.10
2018-05-26T08:51:08.189Z,93.40
2018-05-26T08:53:35.737Z,94.50
2018-05-26T08:56:03.271Z,94.30
2018-05-26T08:58:30.781Z,93.20
2018-05-26T09:00:59.066Z,95.10
2018-05-26T09:03:27.354Z,95.30
2018-05-26T09:05:54.362Z,94.70
2018-05-26T09:08:20.634Z,94.60
2018-05-26T09:10:47.646Z,92.90
2018-05-26T09:13:14.665Z,93.00
2018-05-26T09:15:40.942Z,92.70
2018-05-26T09:18:07.977Z,92.70
2018-05-26T09:20:35.765Z,91.90
2018-05-26T09:23:13.197Z,90.80
2018-05-26T09:25:39.437Z,90.80
2018-05-26T09:28:05.678Z,90.60
2018-05-26T09:30:31.929Z,91.00
2018-05-26T09:32:58.161Z,90.80
2018-05-26T09:35:25.166Z,91.80
2018-05-26T09:37:51.447Z,91.80
2018-05-26T09:40:18.420Z,91.20
2018-05-26T09:42:44.697Z,91.20
2018-05-26T09:45:10.917Z,90.80
2018-05-26T09:47:37.150Z,90.90
2018-05-26T09:50:04.141Z,90.50
2018-05-26T09:52:30.389Z,90.50
2018-05-26T09:54:56.606Z,90.70
2018-05-26T09:57:22.835Z,90.00
2018-05-26T09:59:49.071Z,89.90
2018-05-26T10:02:16.246Z,88.40
2018-05-26T10:04:42.477Z,86.40
2018-05-26T10:07:08.698Z,85.70
2018-05-26T10:09:34.914Z,88.00
2018-05-26T10:12:08.091Z,85.80
2018-05-26T10:14:34.333Z,86.60
2018-05-26T10:17:00.665Z,87.50
2018-05-26T10:19:26.962Z,83.50
2018-05-26T10:21:53.926Z,79.40
2018-05-26T10:24:20.190Z,79.40
2018-05-26T10:26:46.402Z,82.00
2018-05-26T10:29:12.634Z,79.80
2018-05-26T10:31:38.846Z,81.00
2018-05-26T10:34:05.074Z,76.40
2018-05-26T10:36:31.310Z,71.50
2018-05-26T10:38:57.575Z,75.60
2018-05-26T10:41:23.794Z,76.40
2018-05-26T10:43:50.050Z,73.00
2018-05-26T10:46:24.062Z,70.10
2018-05-26T10:48:51.070Z,69.70
2018-05-26T10:51:17.376Z,69.60
2018-05-26T10:53:43.595Z,66.80
2018-05-26T10:56:09.828Z,63.60
2018-05-26T10:58:36.051Z,63.10
2018-05-26T11:01:02.269Z,62.40
2018-05-26T11:03:29.242Z,63.20
2018-05-26T11:05:55.467Z,63.10
2018-05-26T11:08:21.686Z,62.20
2018-05-26T11:10:47.903Z,62.00
2018-05-26T11:13:14.165Z,61.60
2018-05-26T11:15:40.382Z,59.50
2018-05-26T11:18:06.646Z,59.10
2018-05-26T11:20:32.921Z,58.90
2018-05-26T11:22:59.163Z,58.90
2018-05-26T11:25:25.448Z,57.80
2018-05-26T11:27:51.650Z,57.50
2018-05-26T11:30:17.901Z,57.00
2018-05-26T11:32:44.113Z,57.50
2018-05-26T11:35:10.338Z,57.50
2018-05-26T11:37:36.549Z,58.40
2018-05-26T11:40:02.804Z,57.10
2018-05-26T11:42:29.030Z,55.60
2018-05-26T11:44:56.027Z,56.00
2018-05-26T11:47:22.257Z,56.00
2018-05-26T11:49:48.477Z,57.40
2018-05-26T11:52:15.457Z,54.80
2018-05-26T11:54:41.702Z,54.70
2018-05-26T11:57:07.922Z,54.40
2018-05-26T11:59:34.142Z,55.00
2018-05-26T12:02:00.418Z,56.60
2018-05-26T12:04:26.613Z,53.90
2018-05-26T12:06:52.877Z,55.20
2018-05-26T12:09:19.878Z,54.30
2018-05-26T12:11:46.123Z,54.30
2018-05-26T12:14:12.361Z,53.90
2018-05-26T12:16:38.598Z,54.60
2018-05-26T12:19:04.826Z,55.20
2018-05-26T12:21:31.066Z,53.00
2018-05-26T12:23:58.050Z,54.50
2018-05-26T12:26:24.297Z,54.40
2018-05-26T12:28:50.517Z,55.30
2018-05-26T12:31:16.746Z,55.30
2018-05-26T12:33:42.975Z,53.00
2018-05-26T12:36:09.221Z,53.00
2018-05-26T12:38:35.449Z,54.10
2018-05-26T12:41:01.678Z,52.70
2018-05-26T12:43:27.942Z,53.30
2018-05-26T12:45:54.924Z,50.40
2018-05-26T12:48:21.142Z,50.40
2018-05-26T12:50:47.382Z,50.00
2018-05-26T12:53:13.614Z,49.50
2018-05-26T12:55:39.852Z,48.10
2018-05-26T12:58:06.083Z,50.10
2018-05-26T13:00:32.323Z,48.00
2018-05-26T13:02:58.566Z,46.80
2018-05-26T13:05:24.789Z,46.80
2018-05-26T13:07:51.033Z,46.30
2018-05-26T13:10:17.278Z,46.90
2018-05-26T13:12:44.262Z,44.10
2018-05-26T13:15:10.553Z,44.10
2018-05-26T13:17:37.532Z,46.00
2018-05-26T13:20:03.774Z,45.90
2018-05-26T13:22:29.994Z,46.10
2018-05-26T13:24:56.310Z,45.20
2018-05-26T13:27:22.579Z,45.30
2018-05-26T13:29:48.829Z,45.70
2018-05-26T13:32:15.041Z,44.40
2018-05-26T13:34:41.274Z,45.80
2018-05-26T13:37:07.494Z,43.50
2018-05-26T13:39:33.713Z,44.20
2018-05-26T13:41:59.955Z,43.10
2018-05-26T13:44:26.177Z,45.80
2018-05-26T13:46:52.447Z,43.70
2018-05-26T13:49:19.417Z,43.90
2018-05-26T13:51:45.673Z,43.80
2018-05-26T13:54:11.897Z,42.40
2018-05-26T13:56:38.178Z,41.10
2018-05-26T13:59:04.402Z,40.40
2018-05-26T14:01:31.370Z,42.00
2018-05-26T14:03:57.617Z,41.80
2018-05-26T14:06:23.849Z,40.90
2018-05-26T14:08:50.080Z,41.00
2018-05-26T14:11:16.313Z,40.20
2018-05-26T14:13:42.546Z,41.20
2018-05-26T14:16:08.765Z,41.60
2018-05-26T14:18:35.031Z,41.60
2018-05-26T14:21:01.346Z,40.90
2018-05-26T14:23:34.487Z,41.20
2018-05-26T14:26:01.474Z,40.30
2018-05-26T14:28:27.732Z,40.30
2018-05-26T14:30:53.978Z,40.00
2018-05-26T14:33:20.961Z,43.40
2018-05-26T14:35:47.189Z,43.40
2018-05-26T14:38:13.428Z,41.30
2018-05-26T14:40:39.697Z,42.50
2018-05-26T14:43:05.934Z,43.90
2018-05-26T14:45:32.906Z,40.70
2018-05-26T14:47:59.213Z,40.00
2018-05-26T14:50:26.230Z,40.70
2018-05-26T14:52:52.471Z,40.60
2018-05-26T14:55:18.717Z,39.80
2018-05-26T14:57:45.717Z,39.10
2018-05-26T15:00:11.966Z,39.00
2018-05-26T15:02:38.242Z,38.70
2018-05-26T15:05:04.488Z,39.50
2018-05-26T15:07:30.717Z,38.50
2018-05-26T15:09:56.935Z,39.40
2018-05-26T15:12:23.156Z,38.00
2018-05-26T15:14:49.400Z,39.20
2018-05-26T15:17:15.621Z,38.00
2018-05-26T15:19:41.853Z,35.50
2018-05-26T15:22:08.150Z,35.20
2018-05-26T15:24:35.125Z,37.00
2018-05-26T15:27:01.362Z,37.00
2018-05-26T15:29:27.577Z,37.50
2018-05-26T15:31:53.809Z,36.40
2018-05-26T15:34:20.101Z,36.70
2018-05-26T15:36:46.326Z,36.90
2018-05-26T15:39:12.540Z,35.30
2018-05-26T15:41:38.786Z,35.70
2018-05-26T15:44:05.018Z,34.20
2018-05-26T15:46:32.026Z,35.10
2018-05-26T15:48:58.342Z,35.20
2018-05-26T15:51:24.579Z,36.10
2018-05-26T15:53:50.806Z,36.00
2018-05-26T15:56:17.042Z,34.60
2018-05-26T15:58:43.263Z,33.50
2018-05-26T16:01:09.518Z,35.10
2018-05-26T16:03:35.759Z,35.80
2018-05-26T16:06:02.778Z,36.70
2018-05-26T16:08:29.021Z,36.60
2018-05-26T16:10:55.246Z,37.00
2018-05-26T16:13:21.474Z,36.70
2018-05-26T16:15:47.694Z,36.20
2018-05-26T16:18:13.927Z,36.10
2018-05-26T16:20:40.146Z,37.70
2018-05-26T16:23:06.378Z,36.30
2018-05-26T16:25:32.613Z,36.40
2018-05-26T16:27:58.862Z,37.20
2018-05-26T16:30:25.102Z,38.80
2018-05-26T16:32:51.357Z,39.60
2018-05-26T16:35:17.589Z,40.00
2018-05-26T16:37:43.813Z,39.80
2018-05-26T16:40:10.798Z,41.20
2018-05-26T16:42:37.042Z,41.20
2018-05-26T16:45:03.311Z,42.00
2018-05-26T16:47:30.273Z,42.90
2018-05-26T16:49:56.509Z,42.90
2018-05-26T16:52:22.741Z,43.90
2018-05-26T16:54:48.969Z,45.10
2018-05-26T16:57:15.225Z,45.90
2018-05-26T16:59:48.525Z,46.60
2018-05-26T17:02:14.753Z,48.10
2018-05-26T17:04:40.982Z,47.90
2018-05-26T17:07:07.234Z,48.40
2018-05-26T17:09:33.450Z,48.70
2018-05-26T17:11:59.703Z,49.20
2018-05-26T17:14:41.601Z,50.40
2018-05-26T17:17:08.574Z,50.90
2018-05-26T17:19:34.837Z,50.90
2018-05-26T17:22:01.057Z,51.20
2018-05-26T17:24:27.274Z,51.30
2018-05-26T17:26:53.505Z,51.70
2018-05-26T17:29:19.749Z,51.80
2018-05-26T17:31:45.969Z,51.80
2018-05-26T17:34:12.177Z,52.10
2018-05-26T17:36:38.479Z,52.30
2018-05-26T17:39:04.673Z,52.40
2018-05-26T17:41:31.669Z,52.70
2018-05-26T17:43:57.927Z,52.70
2018-05-26T17:46:24.169Z,52.80
2018-05-26T17:48:50.413Z,52.90
2018-05-26T17:51:16.644Z,53.30
2018-05-26T17:53:42.877Z,53.30
2018-05-26T17:56:09.106Z,53.30
2018-05-26T17:58:35.350Z,53.60
2018-05-26T18:01:02.376Z,54.40
2018-05-26T18:03:28.605Z,54.40
2018-05-26T18:05:54.838Z,54.70
2018-05-26T18:08:21.103Z,55.10
2018-05-26T18:10:47.337Z,55.40
2018-05-26T18:13:13.566Z,55.60
2018-05-26T18:15:39.837Z,55.70
2018-05-26T18:18:06.078Z,56.00
2018-05-26T18:20:32.370Z,56.00
2018-05-26T18:22:59.293Z,56.60
2018-05-26T18:25:25.534Z,56.60
2018-05-26T18:27:51.804Z,57.10
2018-05-26T18:30:18.037Z,57.70
2018-05-26T18:32:44.258Z,58.00
2018-05-26T18:35:10.486Z,58.10
2018-05-26T18:37:36.720Z,58.20
2018-05-26T18:40:02.962Z,58.50
2018-05-26T18:42:29.210Z,58.90
2018-05-26T18:44:56.176Z,59.50
2018-05-26T18:47:22.409Z,59.40
2018-05-26T18:49:48.617Z,59.70
2018-05-26T18:52:15.758Z,59.90
2018-05-26T18:54:42.782Z,60.00
2018-05-26T18:57:09.122Z,60.00
2018-05-26T18:59:35.378Z,60.40
2018-05-26T19:02:02.403Z,61.10
2018-05-26T19:04:29.469Z,61.40
2018-05-26T19:06:55.747Z,61.40
2018-05-26T19:09:22.000Z,61.80
2018-05-26T19:11:48.250Z,62.00
2018-05-26T19:14:15.242Z,62.20
2018-05-26T19:16:41.535Z,62.10
2018-05-26T19:19:07.825Z,62.90
2018-05-26T19:21:34.142Z,63.60
2018-05-26T19:24:00.416Z,64.60
2018-05-26T19:26:27.378Z,65.70
2018-05-26T19:28:53.678Z,65.70
2018-05-26T19:31:20.002Z,66.30
2018-05-26T19:33:46.282Z,66.90
2018-05-26T19:36:12.515Z,67.00
2018-05-26T19:38:38.961Z,67.10
2018-05-26T19:41:05.235Z,66.60
2018-05-26T19:43:32.286Z,66.70
2018-05-26T19:45:59.274Z,66.70
2018-05-26T19:48:25.542Z,66.50
2018-05-26T19:50:51.802Z,66.40
2018-05-26T20:06:40.117Z,67.30
2018-05-26T20:09:08.417Z,69.20
2018-05-26T20:11:36.736Z,69.80
2018-05-26T20:14:04.261Z,69.70
2018-05-26T20:16:31.770Z,70.40
2018-05-26T20:18:59.314Z,70.70
2018-05-26T20:21:26.810Z,71.00
2018-05-26T20:23:55.090Z,71.30
2018-05-26T20:26:23.367Z,71.50
2018-05-26T20:28:51.637Z,71.80
2018-05-26T20:31:19.280Z,71.80
2018-05-26T20:33:46.804Z,71.70
2018-05-26T20:36:14.323Z,71.80
2018-05-26T20:38:42.601Z,71.80
2018-05-26T20:41:10.138Z,71.80
2018-05-26T20:43:37.666Z,71.80
2018-05-26T20:46:05.166Z,72.10
2018-05-26T20:48:32.673Z,72.20
2018-05-26T20:51:00.177Z,72.30
2018-05-26T20:53:27.676Z,72.70
2018-05-26T20:55:55.173Z,72.90
2018-05-26T20:58:22.685Z,73.20
2018-05-26T21:00:50.263Z,73.40
2018-05-26T21:03:17.766Z,73.80
2018-05-26T21:05:45.294Z,74.00
2018-05-26T21:08:12.802Z,74.20
2018-05-26T21:10:41.074Z,74.90
2018-05-26T21:13:09.353Z,75.50
2018-05-26T21:15:37.637Z,75.30
2018-05-26T21:18:05.906Z,75.50
2018-05-26T21:20:34.185Z,75.70
2018-05-26T21:23:02.449Z,76.00
2018-05-26T21:25:29.946Z,75.90
2018-05-26T21:27:57.454Z,76.30
2018-05-26T21:30:24.978Z,77.30
2018-05-26T21:32:52.482Z,77.90
2018-05-26T21:35:19.986Z,78.80
2018-05-26T21:37:47.490Z,79.30
2018-05-26T21:40:16.508Z,78.90
2018-05-26T21:42:44.777Z,78.40
2018-05-26T21:45:13.059Z,78.20
2018-05-26T21:47:41.337Z,78.10
2018-05-26T21:50:09.610Z,78.20
2018-05-26T21:52:37.869Z,78.30
2018-05-26T21:55:05.454Z,78.40
2018-05-26T21:57:33.729Z,78.70
2018-05-26T22:00:02.011Z,78.90
2018-05-26T22:02:29.529Z,78.90
2018-05-26T22:04:57.022Z,78.90
2018-05-26T22:07:25.291Z,79.10
2018-05-26T22:09:53.573Z,79.30
2018-05-26T22:12:21.830Z,79.50
2018-05-26T22:14:49.326Z,79.50
2018-05-26T22:17:17.830Z,79.80
2018-05-26T22:19:45.330Z,80.00
2018-05-26T22:22:12.849Z,79.90
2018-05-26T22:24:40.353Z,79.90
2018-05-26T22:27:07.899Z,80.90
2018-05-26T22:29:36.919Z,83.10
2018-05-26T22:32:05.185Z,84.60
2018-05-26T22:34:32.994Z,84.60
2018-05-26T22:37:00.801Z,86.90
2018-05-26T22:39:29.304Z,87.20
2018-05-26T22:41:57.191Z,87.20
2018-05-26T22:44:25.016Z,87.40
2018-05-26T22:46:53.656Z,88.00
2018-05-26T22:49:21.627Z,87.20
2018-05-26T22:51:49.391Z,87.10
2018-05-26T22:54:17.294Z,87.40
2018-05-26T22:56:46.763Z,87.00
2018-05-26T22:59:14.392Z,87.00
2018-05-26T23:01:41.995Z,86.80
2018-05-26T23:04:09.784Z,87.20
2018-05-26T23:06:38.435Z,87.30
2018-05-26T23:09:06.302Z,87.20
2018-05-26T23:11:34.017Z,87.40
2018-05-26T23:14:02.571Z,88.10
2018-05-26T23:16:31.029Z,88.00
2018-05-26T23:18:58.793Z,87.60
2018-05-26T23:21:26.661Z,87.00
2018-05-26T23:23:54.429Z,86.70
2018-05-26T23:26:22.230Z,86.20
2018-05-26T23:28:50.775Z,85.60
2018-05-26T23:31:18.543Z,85.60
2018-05-26T23:33:46.164Z,85.30
2018-05-26T23:36:13.998Z,85.30
2018-05-26T23:38:42.649Z,85.20
2018-05-26T23:41:10.517Z,85.20
2018-05-26T23:43:38.304Z,85.10
2018-05-26T23:46:06.152Z,85.00
2018-05-26T23:48:33.920Z,84.80
2018-05-26T23:51:01.779Z,84.80
2018-05-26T23:53:29.646Z,84.80
2018-05-26T23:55:57.411Z,84.90
2018-05-26T23:58:25.277Z,84.90
